Ben-my-chree — MXLG6 — position and weather

sailwx.info

Track history (hours):
 
Tides and Currents Weather Stations Pressure Air Temp Water Temp Dewpoint Dewpoint Depression Visibility Wind Speed Wind Dir Waves Ship Positions

Ben-my-chree

Operator: The Isle of Man Steam Packet Co Ltd

Last reported at 2020-Aug-09 04:28 UTC. Time now 2020-Aug-09 05:56 UTC.
Position N 54°20' W 004°18'.

Length 125 m; draft 5 m.

Type: Ship. MMSI: 234983000.

Date/timePositionNaut miles runAvg speedWind from/ knotsBaromVisibWave heightAir tempDewpointWater temp
2020-Aug-09 04:28N 54°20' W 004°18'5811.8
2020-Aug-08 23:30N 54°37' W 005°55'1110.3
2020-Aug-08 22:29N 54°43' W 005°40'1313.4
2020-Aug-08 21:31N 54°35' W 005°22'7710.9
2020-Aug-08 14:30N 53°56' W 003°29'2111.5
2020-Aug-08 12:41N 54°02' W 002°55'0 0.0
2020-Aug-08 11:15N 54°02' W 002°55'0 0.5
2020-Aug-08 11:00N 54°02' W 002°55'2416.2
2020-Aug-08 09:30N 53°57' W 003°35'917.7
2020-Aug-08 09:00N 53°60' W 003°50'1817.5
2020-Aug-08 07:57N 54°07' W 004°19'6 2.0
2020-Aug-08 04:55N 54°09' W 004°28'2413.4
2020-Aug-08 03:05N 54°00' W 003°49'517.6
2020-Aug-08 02:47N 53°58' W 003°41'2715.2
2020-Aug-08 01:00N 54°02' W 002°55'0 0.2
2020-Aug-07 23:49N 54°02' W 002°55'5 2.6
2020-Aug-07 22:01N 53°59' W 003°01'5 0.7
2020-Aug-07 14:01N 53°56' W 003°09'10 7.1
2020-Aug-07 12:35N 54°02' W 002°55'0 0.0
2020-Aug-07 12:29N 54°02' W 002°55'5 2.6
2020-Aug-07 10:30N 53°59' W 003°01'1019.3
2020-Aug-07 10:00N 53°55' W 003°16'38 6.3
2020-Aug-07 04:01N 54°06' W 004°18'718.4
2020-Aug-07 03:39N 54°04' W 004°07'518.6
2020-Aug-07 03:23N 54°02' W 003°59'3815.7
2020-Aug-07 01:00N 54°02' W 002°55'0 0.0
2020-Aug-06 23:28N 54°02' W 002°55'8 3.8
2020-Aug-06 21:30N 53°57' W 003°05'2617.4
2020-Aug-06 20:00N 54°00' W 003°49'26 4.0
2020-Aug-06 13:30N 53°57' W 003°05'47 5.1
2020-Aug-06 04:14N 54°09' W 004°24'4018.0
2020-Aug-06 02:01N 53°55' W 003°19'917.7
2020-Aug-06 01:30N 53°57' W 003°05'7 2.4
2020-Aug-05 22:30N 54°02' W 002°55'16 1.9
2020-Aug-05 14:00N 53°56' W 003°20'1616.0
2020-Aug-05 13:00N 54°02' W 002°55'0 0.0
2020-Aug-05 12:30N 54°02' W 002°55'23 7.8
2020-Aug-05 09:30N 53°57' W 003°34'23 2.6
2020-Aug-05 00:28N 54°02' W 002°55'0 0.0
2020-Aug-04 22:25N 54°02' W 002°55'1611.2
2020-Aug-04 21:00N 53°55' W 003°19'16 1.6
2020-Aug-04 11:00N 54°02' W 002°55'2315.4
2020-Aug-04 09:30N 53°57' W 003°33'23 2.1
2020-Aug-03 22:23N 54°02' W 002°55'0 0.0
2020-Aug-03 13:01N 54°02' W 002°55'0 0.1
2020-Aug-03 11:00N 54°02' W 002°55'1616.5
2020-Aug-03 10:00N 53°56' W 003°21'918.2
2020-Aug-03 09:30N 53°57' W 003°36'24 2.6
2020-Aug-02 23:59N 54°02' W 002°55'8 0.8
2020-Aug-02 13:30N 53°57' W 003°06'816.5
2020-Aug-02 13:01N 54°02' W 002°55'0 0.0
2020-Aug-02 12:18N 54°02' W 002°55'14 7.6
2020-Aug-02 10:31N 53°55' W 003°15'917.9
2020-Aug-02 10:00N 53°56' W 003°30'56 9.4
2020-Aug-02 04:02N 54°12' W 005°02'218.0
2020-Aug-02 03:54N 54°15' W 005°04'1617.8
2020-Aug-02 03:00N 54°29' W 005°17'1716.7
2020-Aug-02 02:01N 54°43' W 005°31'1414.3
2020-Aug-02 01:00N 54°37' W 005°54'10 3.8
2020-Aug-01 22:30N 54°43' W 005°41'9411.1
2020-Aug-01 14:01N 53°55' W 003°21'17 6.6
2020-Aug-01 11:30N 54°02' W 002°55'2412.3
2020-Aug-01 09:31N 53°57' W 003°36'4 0.6
2020-Aug-01 02:24N 53°56' W 003°29'2110.8
2020-Aug-01 00:29N 54°02' W 002°55'0 0.0
2020-Jul-31 23:50N 54°02' W 002°55'11 4.6
2020-Jul-31 21:30N 53°56' W 003°10'11 1.1
2020-Jul-31 11:49N 54°02' W 002°55'2011.0
2020-Jul-31 10:00N 53°56' W 003°27'38 9.5
2020-Jul-31 06:01N 54°09' W 004°28'6 2.8
2020-Jul-31 03:52N 54°08' W 004°18'4616.1
2020-Jul-31 01:00N 53°58' W 003°02'5 8.1
2020-Jul-31 00:21N 54°02' W 002°55'0 0.0
2020-Jul-30 22:08N 54°02' W 002°55'711.0
2020-Jul-30 21:30N 53°58' W 003°04'1616.3
2020-Jul-30 20:31N 53°56' W 003°31'1717.2
2020-Jul-30 19:30N 54°02' W 003°59'23 3.9
2020-Jul-30 13:30N 53°56' W 003°21'14 4.7
2020-Jul-30 10:30N 54°01' W 002°58'2214.9
2020-Jul-30 09:00N 53°57' W 003°36'816.4
2020-Jul-30 08:30N 54°00' W 003°49'  
Track history (hours):
 
Tides and Currents Weather Stations Pressure Air Temp Water Temp Dewpoint Dewpoint Depression Visibility Wind Speed Wind Dir Waves Ship Positions

Ben-my-chree

Operator: The Isle of Man Steam Packet Co Ltd

Last reported at 2020-Aug-09 04:28 UTC. Time now 2020-Aug-09 05:56 UTC.
Position N 54°20' W 004°18'.

Length 125 m; draft 5 m.

Type: Ship. MMSI: 234983000.

Date/timePositionNaut miles runAvg speedWind from/ knotsBaromVisibWave heightAir tempDewpointWater temp
2020-Aug-09 04:28N 54°20' W 004°18'5811.8
2020-Aug-08 23:30N 54°37' W 005°55'1110.3
2020-Aug-08 22:29N 54°43' W 005°40'1313.4
2020-Aug-08 21:31N 54°35' W 005°22'7710.9
2020-Aug-08 14:30N 53°56' W 003°29'2111.5
2020-Aug-08 12:41N 54°02' W 002°55'0 0.0
2020-Aug-08 11:15N 54°02' W 002°55'0 0.5
2020-Aug-08 11:00N 54°02' W 002°55'2416.2
2020-Aug-08 09:30N 53°57' W 003°35'917.7
2020-Aug-08 09:00N 53°60' W 003°50'1817.5
2020-Aug-08 07:57N 54°07' W 004°19'6 2.0
2020-Aug-08 04:55N 54°09' W 004°28'2413.4
2020-Aug-08 03:05N 54°00' W 003°49'517.6
2020-Aug-08 02:47N 53°58' W 003°41'2715.2
2020-Aug-08 01:00N 54°02' W 002°55'0 0.2
2020-Aug-07 23:49N 54°02' W 002°55'5 2.6
2020-Aug-07 22:01N 53°59' W 003°01'5 0.7
2020-Aug-07 14:01N 53°56' W 003°09'10 7.1
2020-Aug-07 12:35N 54°02' W 002°55'0 0.0
2020-Aug-07 12:29N 54°02' W 002°55'5 2.6
2020-Aug-07 10:30N 53°59' W 003°01'1019.3
2020-Aug-07 10:00N 53°55' W 003°16'38 6.3
2020-Aug-07 04:01N 54°06' W 004°18'718.4
2020-Aug-07 03:39N 54°04' W 004°07'518.6
2020-Aug-07 03:23N 54°02' W 003°59'3815.7
2020-Aug-07 01:00N 54°02' W 002°55'0 0.0
2020-Aug-06 23:28N 54°02' W 002°55'8 3.8
2020-Aug-06 21:30N 53°57' W 003°05'2617.4
2020-Aug-06 20:00N 54°00' W 003°49'26 4.0
2020-Aug-06 13:30N 53°57' W 003°05'47 5.1
2020-Aug-06 04:14N 54°09' W 004°24'4018.0
2020-Aug-06 02:01N 53°55' W 003°19'917.7
2020-Aug-06 01:30N 53°57' W 003°05'7 2.4
2020-Aug-05 22:30N 54°02' W 002°55'16 1.9
2020-Aug-05 14:00N 53°56' W 003°20'1616.0
2020-Aug-05 13:00N 54°02' W 002°55'0 0.0
2020-Aug-05 12:30N 54°02' W 002°55'23 7.8
2020-Aug-05 09:30N 53°57' W 003°34'23 2.6
2020-Aug-05 00:28N 54°02' W 002°55'0 0.0
2020-Aug-04 22:25N 54°02' W 002°55'1611.2
2020-Aug-04 21:00N 53°55' W 003°19'16 1.6
2020-Aug-04 11:00N 54°02' W 002°55'2315.4
2020-Aug-04 09:30N 53°57' W 003°33'23 2.1
2020-Aug-03 22:23N 54°02' W 002°55'0 0.0
2020-Aug-03 13:01N 54°02' W 002°55'0 0.1
2020-Aug-03 11:00N 54°02' W 002°55'1616.5
2020-Aug-03 10:00N 53°56' W 003°21'918.2
2020-Aug-03 09:30N 53°57' W 003°36'24 2.6
2020-Aug-02 23:59N 54°02' W 002°55'8 0.8
2020-Aug-02 13:30N 53°57' W 003°06'816.5
2020-Aug-02 13:01N 54°02' W 002°55'0 0.0
2020-Aug-02 12:18N 54°02' W 002°55'14 7.6
2020-Aug-02 10:31N 53°55' W 003°15'917.9
2020-Aug-02 10:00N 53°56' W 003°30'56 9.4
2020-Aug-02 04:02N 54°12' W 005°02'218.0
2020-Aug-02 03:54N 54°15' W 005°04'1617.8
2020-Aug-02 03:00N 54°29' W 005°17'1716.7
2020-Aug-02 02:01N 54°43' W 005°31'1414.3
2020-Aug-02 01:00N 54°37' W 005°54'10 3.8
2020-Aug-01 22:30N 54°43' W 005°41'9411.1
2020-Aug-01 14:01N 53°55' W 003°21'17 6.6
2020-Aug-01 11:30N 54°02' W 002°55'2412.3
2020-Aug-01 09:31N 53°57' W 003°36'4 0.6
2020-Aug-01 02:24N 53°56' W 003°29'2110.8
2020-Aug-01 00:29N 54°02' W 002°55'0 0.0
2020-Jul-31 23:50N 54°02' W 002°55'11 4.6
2020-Jul-31 21:30N 53°56' W 003°10'11 1.1
2020-Jul-31 11:49N 54°02' W 002°55'2011.0
2020-Jul-31 10:00N 53°56' W 003°27'38 9.5
2020-Jul-31 06:01N 54°09' W 004°28'6 2.8
2020-Jul-31 03:52N 54°08' W 004°18'4616.1
2020-Jul-31 01:00N 53°58' W 003°02'5 8.1
2020-Jul-31 00:21N 54°02' W 002°55'0 0.0
2020-Jul-30 22:08N 54°02' W 002°55'711.0
2020-Jul-30 21:30N 53°58' W 003°04'1616.3
2020-Jul-30 20:31N 53°56' W 003°31'1717.2
2020-Jul-30 19:30N 54°02' W 003°59'23 3.9
2020-Jul-30 13:30N 53°56' W 003°21'14 4.7
2020-Jul-30 10:30N 54°01' W 002°58'2214.9
2020-Jul-30 09:00N 53°57' W 003°36'816.4
2020-Jul-30 08:30N 54°00' W 003°49'  

Dump ship's entire track history